Terminal Aerodrome Forecast
Issued by NWS Northern Indiana

Home | Current Version | Previous Version | Text Only | Print | Product List | Glossary Off
Versions: 1 2 3 4 5 6 7 8 9 10 11 12 13 14 15

000
FTUS43 KIWX 210400 AAA
TAFFWA
TAF AMD
KFWA 210422Z 2104/2124 21006KT P6SM VCSH BKN035 OVC100
      TEMPO 2104/2106 5SM -RA BR
     FM210600 23008KT 5SM BR SCT040 BKN100
     FM211100 26010KT 4SM BR BKN015
     FM211600 29015G22KT P6SM BKN040=

USA.gov is the U.S. government's official web portal to all federal, state and local government web resources and services.